sensor_id;sensor_type;location;lat;lon;timestamp;temperature;humidity
54832;DHT22;40730;53.068;6.572;2023-05-07T00:01:56;12.30;99.90
54832;DHT22;40730;53.068;6.572;2023-05-07T00:04:22;12.30;99.90
54832;DHT22;40730;53.068;6.572;2023-05-07T00:06:48;12.30;99.90
54832;DHT22;40730;53.068;6.572;2023-05-07T00:09:13;12.30;99.90
54832;DHT22;40730;53.068;6.572;2023-05-07T00:11:39;12.30;99.90
54832;DHT22;40730;53.068;6.572;2023-05-07T00:14:05;12.40;99.90
54832;DHT22;40730;53.068;6.572;2023-05-07T00:16:31;12.20;99.90
54832;DHT22;40730;53.068;6.572;2023-05-07T00:18:57;12.20;99.90
54832;DHT22;40730;53.068;6.572;2023-05-07T00:21:22;12.20;99.90
54832;DHT22;40730;53.068;6.572;2023-05-07T00:23:48;12.20;99.90
54832;DHT22;40730;53.068;6.572;2023-05-07T00:26:13;12.10;99.90
54832;DHT22;40730;53.068;6.572;2023-05-07T00:28:39;12.10;99.90
54832;DHT22;40730;53.068;6.572;2023-05-07T00:31:05;12.10;99.90
54832;DHT22;40730;53.068;6.572;2023-05-07T00:33:30;12.10;99.90
54832;DHT22;40730;53.068;6.572;2023-05-07T00:35:56;12.10;99.90
54832;DHT22;40730;53.068;6.572;2023-05-07T00:38:21;12.00;99.90
54832;DHT22;40730;53.068;6.572;2023-05-07T00:40:47;12.10;99.90
54832;DHT22;40730;53.068;6.572;2023-05-07T00:43:13;12.00;99.90
54832;DHT22;40730;53.068;6.572;2023-05-07T00:45:38;11.90;99.90
54832;DHT22;40730;53.068;6.572;2023-05-07T00:48:04;11.90;99.90
54832;DHT22;40730;53.068;6.572;2023-05-07T00:50:30;11.90;99.90
54832;DHT22;40730;53.068;6.572;2023-05-07T00:52:56;11.90;99.90
54832;DHT22;40730;53.068;6.572;2023-05-07T00:55:23;11.90;99.90
54832;DHT22;40730;53.068;6.572;2023-05-07T00:57:50;11.80;99.90
54832;DHT22;40730;53.068;6.572;2023-05-07T01:00:16;11.90;99.90
54832;DHT22;40730;53.068;6.572;2023-05-07T01:02:42;11.80;99.90
54832;DHT22;40730;53.068;6.572;2023-05-07T01:05:13;11.80;99.90
54832;DHT22;40730;53.068;6.572;2023-05-07T01:07:40;11.80;99.90
54832;DHT22;40730;53.068;6.572;2023-05-07T01:10:08;11.70;99.90
54832;DHT22;40730;53.068;6.572;2023-05-07T01:12:38;11.70;99.90
54832;DHT22;40730;53.068;6.572;2023-05-07T01:15:05;11.70;99.90
54832;DHT22;40730;53.068;6.572;2023-05-07T01:17:37;11.70;99.90
54832;DHT22;40730;53.068;6.572;2023-05-07T01:20:04;11.60;99.90
54832;DHT22;40730;53.068;6.572;2023-05-07T01:22:34;11.70;99.90
54832;DHT22;40730;53.068;6.572;2023-05-07T01:25:02;11.60;99.90
54832;DHT22;40730;53.068;6.572;2023-05-07T01:27:28;11.60;99.90
54832;DHT22;40730;53.068;6.572;2023-05-07T01:29:54;11.60;99.90
54832;DHT22;40730;53.068;6.572;2023-05-07T01:34:55;11.60;99.90
54832;DHT22;40730;53.068;6.572;2023-05-07T01:37:23;11.50;99.90
54832;DHT22;40730;53.068;6.572;2023-05-07T01:39:50;11.60;99.90
54832;DHT22;40730;53.068;6.572;2023-05-07T01:42:15;11.50;99.90
54832;DHT22;40730;53.068;6.572;2023-05-07T01:44:41;11.40;99.90
54832;DHT22;40730;53.068;6.572;2023-05-07T01:47:07;11.40;99.90
54832;DHT22;40730;53.068;6.572;2023-05-07T01:49:34;11.40;99.90
54832;DHT22;40730;53.068;6.572;2023-05-07T01:52:00;11.30;99.90
54832;DHT22;40730;53.068;6.572;2023-05-07T01:54:26;11.30;99.90
54832;DHT22;40730;53.068;6.572;2023-05-07T01:56:56;11.30;99.90
54832;DHT22;40730;53.068;6.572;2023-05-07T01:59:22;11.20;99.90
54832;DHT22;40730;53.068;6.572;2023-05-07T02:01:48;11.20;99.90
54832;DHT22;40730;53.068;6.572;2023-05-07T02:04:13;11.20;99.90
54832;DHT22;40730;53.068;6.572;2023-05-07T02:06:39;11.10;99.90
54832;DHT22;40730;53.068;6.572;2023-05-07T02:09:04;11.10;99.90
54832;DHT22;40730;53.068;6.572;2023-05-07T02:11:30;11.10;99.90
54832;DHT22;40730;53.068;6.572;2023-05-07T02:13:56;11.10;99.90
54832;DHT22;40730;53.068;6.572;2023-05-07T02:16:21;11.10;99.90
54832;DHT22;40730;53.068;6.572;2023-05-07T02:18:48;11.10;99.90
54832;DHT22;40730;53.068;6.572;2023-05-07T02:21:14;11.10;99.90
54832;DHT22;40730;53.068;6.572;2023-05-07T02:23:39;11.00;99.90
54832;DHT22;40730;53.068;6.572;2023-05-07T02:26:05;11.00;99.90
54832;DHT22;40730;53.068;6.572;2023-05-07T02:28:31;11.10;99.90
54832;DHT22;40730;53.068;6.572;2023-05-07T02:30:57;11.00;99.90
54832;DHT22;40730;53.068;6.572;2023-05-07T02:33:25;11.00;99.90
54832;DHT22;40730;53.068;6.572;2023-05-07T02:35:50;11.00;99.90
54832;DHT22;40730;53.068;6.572;2023-05-07T02:38:17;11.00;99.90
54832;DHT22;40730;53.068;6.572;2023-05-07T02:40:43;11.00;99.90
54832;DHT22;40730;53.068;6.572;2023-05-07T02:43:09;10.90;99.90
54832;DHT22;40730;53.068;6.572;2023-05-07T02:45:35;10.90;99.90
54832;DHT22;40730;53.068;6.572;2023-05-07T02:48:03;10.90;99.90
54832;DHT22;40730;53.068;6.572;2023-05-07T02:50:29;10.90;99.90
54832;DHT22;40730;53.068;6.572;2023-05-07T02:52:54;11.10;99.90
54832;DHT22;40730;53.068;6.572;2023-05-07T02:55:20;10.80;99.90
54832;DHT22;40730;53.068;6.572;2023-05-07T02:57:46;10.80;99.90
54832;DHT22;40730;53.068;6.572;2023-05-07T03:00:16;10.80;99.90
54832;DHT22;40730;53.068;6.572;2023-05-07T03:02:43;10.80;99.90
54832;DHT22;40730;53.068;6.572;2023-05-07T03:05:09;11.00;99.90
54832;DHT22;40730;53.068;6.572;2023-05-07T03:07:35;10.80;99.90
54832;DHT22;40730;53.068;6.572;2023-05-07T03:10:01;10.80;99.90
54832;DHT22;40730;53.068;6.572;2023-05-07T03:12:27;10.80;99.90
54832;DHT22;40730;53.068;6.572;2023-05-07T03:14:52;11.00;99.90
54832;DHT22;40730;53.068;6.572;2023-05-07T03:17:18;10.80;99.90
54832;DHT22;40730;53.068;6.572;2023-05-07T03:19:43;10.70;99.90
54832;DHT22;40730;53.068;6.572;2023-05-07T03:22:09;10.70;99.90
54832;DHT22;40730;53.068;6.572;2023-05-07T03:24:34;10.70;99.90
54832;DHT22;40730;53.068;6.572;2023-05-07T03:27:00;10.70;99.90
54832;DHT22;40730;53.068;6.572;2023-05-07T03:29:26;10.70;99.90
54832;DHT22;40730;53.068;6.572;2023-05-07T03:31:52;10.70;99.90
54832;DHT22;40730;53.068;6.572;2023-05-07T03:34:17;10.70;99.90
54832;DHT22;40730;53.068;6.572;2023-05-07T03:36:50;10.70;99.90
54832;DHT22;40730;53.068;6.572;2023-05-07T03:39:16;10.70;99.90
54832;DHT22;40730;53.068;6.572;2023-05-07T03:41:42;10.70;99.90
54832;DHT22;40730;53.068;6.572;2023-05-07T03:44:08;10.70;99.90
54832;DHT22;40730;53.068;6.572;2023-05-07T03:46:34;10.70;99.90
54832;DHT22;40730;53.068;6.572;2023-05-07T03:49:00;10.70;99.90
54832;DHT22;40730;53.068;6.572;2023-05-07T03:51:25;10.70;99.90
54832;DHT22;40730;53.068;6.572;2023-05-07T03:53:52;10.80;99.90
54832;DHT22;40730;53.068;6.572;2023-05-07T03:56:22;10.70;99.90
54832;DHT22;40730;53.068;6.572;2023-05-07T03:58:48;10.70;99.90
54832;DHT22;40730;53.068;6.572;2023-05-07T04:01:14;10.60;99.90
54832;DHT22;40730;53.068;6.572;2023-05-07T04:03:40;10.60;99.90
54832;DHT22;40730;53.068;6.572;2023-05-07T04:06:05;10.60;99.90
54832;DHT22;40730;53.068;6.572;2023-05-07T04:08:31;10.60;99.90
54832;DHT22;40730;53.068;6.572;2023-05-07T04:10:57;10.60;99.90
54832;DHT22;40730;53.068;6.572;2023-05-07T04:13:23;10.60;99.90
54832;DHT22;40730;53.068;6.572;2023-05-07T04:15:48;10.60;99.90
54832;DHT22;40730;53.068;6.572;2023-05-07T04:18:15;10.60;99.90
54832;DHT22;40730;53.068;6.572;2023-05-07T04:20:40;10.60;99.90
54832;DHT22;40730;53.068;6.572;2023-05-07T04:23:06;10.60;99.90
54832;DHT22;40730;53.068;6.572;2023-05-07T04:25:35;10.60;99.90
54832;DHT22;40730;53.068;6.572;2023-05-07T04:28:01;10.70;99.90
54832;DHT22;40730;53.068;6.572;2023-05-07T04:30:26;10.50;99.90
54832;DHT22;40730;53.068;6.572;2023-05-07T04:32:52;10.50;99.90
54832;DHT22;40730;53.068;6.572;2023-05-07T04:35:21;10.50;99.90
54832;DHT22;40730;53.068;6.572;2023-05-07T04:37:47;10.50;99.90
54832;DHT22;40730;53.068;6.572;2023-05-07T04:40:13;10.50;99.90
54832;DHT22;40730;53.068;6.572;2023-05-07T04:42:38;10.50;99.90
54832;DHT22;40730;53.068;6.572;2023-05-07T04:45:04;10.50;99.90
54832;DHT22;40730;53.068;6.572;2023-05-07T04:47:30;10.50;99.90
54832;DHT22;40730;53.068;6.572;2023-05-07T04:49:57;10.50;99.90
54832;DHT22;40730;53.068;6.572;2023-05-07T04:52:22;10.40;99.90
54832;DHT22;40730;53.068;6.572;2023-05-07T04:54:48;10.50;99.90
54832;DHT22;40730;53.068;6.572;2023-05-07T04:57:13;10.50;99.90
54832;DHT22;40730;53.068;6.572;2023-05-07T04:59:39;10.40;99.90
54832;DHT22;40730;53.068;6.572;2023-05-07T05:02:04;10.40;99.90
54832;DHT22;40730;53.068;6.572;2023-05-07T05:04:30;10.50;99.90
54832;DHT22;40730;53.068;6.572;2023-05-07T05:06:56;10.40;99.90
54832;DHT22;40730;53.068;6.572;2023-05-07T05:09:22;10.50;99.90
54832;DHT22;40730;53.068;6.572;2023-05-07T05:11:47;10.50;99.90
54832;DHT22;40730;53.068;6.572;2023-05-07T05:14:13;10.50;99.90
54832;DHT22;40730;53.068;6.572;2023-05-07T05:16:39;10.50;99.90
54832;DHT22;40730;53.068;6.572;2023-05-07T05:19:04;10.60;99.90
54832;DHT22;40730;53.068;6.572;2023-05-07T05:21:31;10.50;99.90
54832;DHT22;40730;53.068;6.572;2023-05-07T05:23:57;10.60;99.90
54832;DHT22;40730;53.068;6.572;2023-05-07T05:26:23;10.60;99.90
54832;DHT22;40730;53.068;6.572;2023-05-07T05:28:49;10.60;99.90
54832;DHT22;40730;53.068;6.572;2023-05-07T05:31:15;10.60;99.90
54832;DHT22;40730;53.068;6.572;2023-05-07T05:33:41;10.60;99.90
54832;DHT22;40730;53.068;6.572;2023-05-07T05:36:09;10.60;99.90
54832;DHT22;40730;53.068;6.572;2023-05-07T05:38:35;10.70;99.90
54832;DHT22;40730;53.068;6.572;2023-05-07T05:41:01;10.60;99.90
54832;DHT22;40730;53.068;6.572;2023-05-07T05:43:27;10.60;99.90
54832;DHT22;40730;53.068;6.572;2023-05-07T05:45:52;10.70;99.90
54832;DHT22;40730;53.068;6.572;2023-05-07T05:48:18;10.70;99.90
54832;DHT22;40730;53.068;6.572;2023-05-07T05:50:44;10.70;99.90
54832;DHT22;40730;53.068;6.572;2023-05-07T05:53:09;10.70;99.90
54832;DHT22;40730;53.068;6.572;2023-05-07T05:55:35;10.70;99.90
54832;DHT22;40730;53.068;6.572;2023-05-07T05:58:01;10.70;99.90
54832;DHT22;40730;53.068;6.572;2023-05-07T06:00:27;10.70;99.90
54832;DHT22;40730;53.068;6.572;2023-05-07T06:02:53;10.70;99.90
54832;DHT22;40730;53.068;6.572;2023-05-07T06:05:18;10.80;99.90
54832;DHT22;40730;53.068;6.572;2023-05-07T06:07:44;10.80;99.90
54832;DHT22;40730;53.068;6.572;2023-05-07T06:10:10;10.80;99.90
54832;DHT22;40730;53.068;6.572;2023-05-07T06:12:35;10.80;99.90
54832;DHT22;40730;53.068;6.572;2023-05-07T06:15:01;10.90;99.90
54832;DHT22;40730;53.068;6.572;2023-05-07T06:17:27;10.90;99.90
54832;DHT22;40730;53.068;6.572;2023-05-07T06:19:52;10.80;99.90
54832;DHT22;40730;53.068;6.572;2023-05-07T06:22:18;10.90;99.90
54832;DHT22;40730;53.068;6.572;2023-05-07T06:24:44;11.20;99.90
54832;DHT22;40730;53.068;6.572;2023-05-07T06:27:10;11.10;99.90
54832;DHT22;40730;53.068;6.572;2023-05-07T06:29:35;11.00;99.90
54832;DHT22;40730;53.068;6.572;2023-05-07T06:32:12;11.00;99.90
54832;DHT22;40730;53.068;6.572;2023-05-07T06:34:38;11.10;99.90
54832;DHT22;40730;53.068;6.572;2023-05-07T06:37:04;11.10;99.90
54832;DHT22;40730;53.068;6.572;2023-05-07T06:39:30;11.20;99.90
54832;DHT22;40730;53.068;6.572;2023-05-07T06:41:56;11.20;99.90
54832;DHT22;40730;53.068;6.572;2023-05-07T06:44:21;11.10;99.90
54832;DHT22;40730;53.068;6.572;2023-05-07T06:46:47;11.10;99.90
54832;DHT22;40730;53.068;6.572;2023-05-07T06:49:13;11.20;99.90
54832;DHT22;40730;53.068;6.572;2023-05-07T06:51:39;11.30;99.90
54832;DHT22;40730;53.068;6.572;2023-05-07T06:54:05;11.20;99.90
54832;DHT22;40730;53.068;6.572;2023-05-07T06:56:31;11.20;99.90
54832;DHT22;40730;53.068;6.572;2023-05-07T06:58:57;11.30;99.90
54832;DHT22;40730;53.068;6.572;2023-05-07T07:01:22;11.30;99.90
54832;DHT22;40730;53.068;6.572;2023-05-07T07:03:48;11.40;99.90
54832;DHT22;40730;53.068;6.572;2023-05-07T07:06:14;11.30;99.90
54832;DHT22;40730;53.068;6.572;2023-05-07T07:08:39;11.30;99.90
54832;DHT22;40730;53.068;6.572;2023-05-07T07:11:06;11.30;99.90
54832;DHT22;40730;53.068;6.572;2023-05-07T07:13:31;11.50;99.90
54832;DHT22;40730;53.068;6.572;2023-05-07T07:15:57;11.50;99.90
54832;DHT22;40730;53.068;6.572;2023-05-07T07:18:23;11.40;99.90
54832;DHT22;40730;53.068;6.572;2023-05-07T07:20:49;11.50;99.90
54832;DHT22;40730;53.068;6.572;2023-05-07T07:23:14;11.50;99.90
54832;DHT22;40730;53.068;6.572;2023-05-07T07:25:40;11.60;99.90
54832;DHT22;40730;53.068;6.572;2023-05-07T07:28:06;11.60;99.90
54832;DHT22;40730;53.068;6.572;2023-05-07T07:30:32;11.60;99.90
54832;DHT22;40730;53.068;6.572;2023-05-07T07:32:57;11.60;99.90
54832;DHT22;40730;53.068;6.572;2023-05-07T07:35:28;11.70;99.90
54832;DHT22;40730;53.068;6.572;2023-05-07T07:37:54;11.70;99.90
54832;DHT22;40730;53.068;6.572;2023-05-07T07:40:20;12.10;99.90
54832;DHT22;40730;53.068;6.572;2023-05-07T07:42:45;11.80;99.90
54832;DHT22;40730;53.068;6.572;2023-05-07T07:45:11;11.80;99.90
54832;DHT22;40730;53.068;6.572;2023-05-07T07:47:37;12.00;99.90
54832;DHT22;40730;53.068;6.572;2023-05-07T07:50:03;12.00;99.90
54832;DHT22;40730;53.068;6.572;2023-05-07T07:52:29;12.00;99.90
54832;DHT22;40730;53.068;6.572;2023-05-07T07:54:55;12.00;99.90
54832;DHT22;40730;53.068;6.572;2023-05-07T07:57:20;12.10;99.90
54832;DHT22;40730;53.068;6.572;2023-05-07T07:59:46;12.20;99.90
54832;DHT22;40730;53.068;6.572;2023-05-07T08:02:11;12.30;99.90
54832;DHT22;40730;53.068;6.572;2023-05-07T08:04:37;12.40;99.90
54832;DHT22;40730;53.068;6.572;2023-05-07T08:07:03;12.40;99.90
54832;DHT22;40730;53.068;6.572;2023-05-07T08:09:28;12.50;99.90
54832;DHT22;40730;53.068;6.572;2023-05-07T08:11:54;12.50;99.90
54832;DHT22;40730;53.068;6.572;2023-05-07T08:14:20;12.60;99.90
54832;DHT22;40730;53.068;6.572;2023-05-07T08:16:46;12.70;99.90
54832;DHT22;40730;53.068;6.572;2023-05-07T08:19:11;12.70;99.90
54832;DHT22;40730;53.068;6.572;2023-05-07T08:21:39;12.70;99.90
54832;DHT22;40730;53.068;6.572;2023-05-07T08:24:05;12.80;99.90
54832;DHT22;40730;53.068;6.572;2023-05-07T08:26:31;12.90;99.90
54832;DHT22;40730;53.068;6.572;2023-05-07T08:28:56;12.90;99.90
54832;DHT22;40730;53.068;6.572;2023-05-07T08:31:22;12.90;99.90
54832;DHT22;40730;53.068;6.572;2023-05-07T08:33:47;13.00;99.90
54832;DHT22;40730;53.068;6.572;2023-05-07T08:36:13;13.00;99.90
54832;DHT22;40730;53.068;6.572;2023-05-07T08:38:38;13.00;99.90
54832;DHT22;40730;53.068;6.572;2023-05-07T08:41:06;13.00;99.90
54832;DHT22;40730;53.068;6.572;2023-05-07T08:43:33;12.90;99.90
54832;DHT22;40730;53.068;6.572;2023-05-07T08:46:01;13.10;99.90
54832;DHT22;40730;53.068;6.572;2023-05-07T08:48:29;13.20;99.90
54832;DHT22;40730;53.068;6.572;2023-05-07T08:50:57;13.40;99.90
54832;DHT22;40730;53.068;6.572;2023-05-07T08:53:22;13.70;99.90
54832;DHT22;40730;53.068;6.572;2023-05-07T08:55:48;13.90;99.90
54832;DHT22;40730;53.068;6.572;2023-05-07T08:58:14;14.10;99.90
54832;DHT22;40730;53.068;6.572;2023-05-07T09:00:41;14.00;99.90
54832;DHT22;40730;53.068;6.572;2023-05-07T09:03:07;14.00;99.90
54832;DHT22;40730;53.068;6.572;2023-05-07T09:05:32;14.00;99.90
54832;DHT22;40730;53.068;6.572;2023-05-07T09:08:06;14.20;99.90
54832;DHT22;40730;53.068;6.572;2023-05-07T09:10:33;14.10;99.90
54832;DHT22;40730;53.068;6.572;2023-05-07T09:12:59;14.20;99.90
54832;DHT22;40730;53.068;6.572;2023-05-07T09:15:26;14.20;99.90
54832;DHT22;40730;53.068;6.572;2023-05-07T09:17:51;14.30;99.90
54832;DHT22;40730;53.068;6.572;2023-05-07T09:20:17;14.40;99.90
54832;DHT22;40730;53.068;6.572;2023-05-07T09:22:43;14.40;99.90
54832;DHT22;40730;53.068;6.572;2023-05-07T09:25:09;14.60;99.90
54832;DHT22;40730;53.068;6.572;2023-05-07T09:27:35;14.90;99.90
54832;DHT22;40730;53.068;6.572;2023-05-07T09:30:05;15.30;99.90
54832;DHT22;40730;53.068;6.572;2023-05-07T09:32:34;15.50;99.90
54832;DHT22;40730;53.068;6.572;2023-05-07T09:35:00;15.70;99.90
54832;DHT22;40730;53.068;6.572;2023-05-07T09:37:27;15.80;99.90
54832;DHT22;40730;53.068;6.572;2023-05-07T09:39:52;15.90;99.90
54832;DHT22;40730;53.068;6.572;2023-05-07T09:42:25;15.90;99.90
54832;DHT22;40730;53.068;6.572;2023-05-07T09:44:54;15.80;99.90
54832;DHT22;40730;53.068;6.572;2023-05-07T09:47:20;16.00;99.90
54832;DHT22;40730;53.068;6.572;2023-05-07T09:49:48;16.30;99.90
54832;DHT22;40730;53.068;6.572;2023-05-07T09:52:16;16.50;99.90
54832;DHT22;40730;53.068;6.572;2023-05-07T09:54:43;16.90;99.90
54832;DHT22;40730;53.068;6.572;2023-05-07T09:57:11;17.00;99.90
54832;DHT22;40730;53.068;6.572;2023-05-07T09:59:38;17.10;99.90
54832;DHT22;40730;53.068;6.572;2023-05-07T10:02:04;17.00;99.90
54832;DHT22;40730;53.068;6.572;2023-05-07T10:04:31;16.90;99.90
54832;DHT22;40730;53.068;6.572;2023-05-07T10:06:57;16.80;99.90
54832;DHT22;40730;53.068;6.572;2023-05-07T10:09:25;16.80;99.90
54832;DHT22;40730;53.068;6.572;2023-05-07T10:11:51;16.70;99.90
54832;DHT22;40730;53.068;6.572;2023-05-07T10:14:17;16.80;99.90
54832;DHT22;40730;53.068;6.572;2023-05-07T10:16:44;16.70;99.90
54832;DHT22;40730;53.068;6.572;2023-05-07T10:19:12;16.90;99.90
54832;DHT22;40730;53.068;6.572;2023-05-07T10:21:44;16.60;99.90
54832;DHT22;40730;53.068;6.572;2023-05-07T10:24:21;16.50;99.90
54832;DHT22;40730;53.068;6.572;2023-05-07T10:26:50;16.40;99.90
54832;DHT22;40730;53.068;6.572;2023-05-07T10:34:40;16.90;99.90
54832;DHT22;40730;53.068;6.572;2023-05-07T10:37:07;17.20;99.90
54832;DHT22;40730;53.068;6.572;2023-05-07T10:39:33;17.30;99.90
54832;DHT22;40730;53.068;6.572;2023-05-07T10:42:13;17.70;99.90
54832;DHT22;40730;53.068;6.572;2023-05-07T10:44:39;17.60;99.90
54832;DHT22;40730;53.068;6.572;2023-05-07T10:47:09;17.60;99.90
54832;DHT22;40730;53.068;6.572;2023-05-07T10:49:36;17.80;99.90
54832;DHT22;40730;53.068;6.572;2023-05-07T10:52:16;18.00;99.90
54832;DHT22;40730;53.068;6.572;2023-05-07T10:54:43;18.10;99.90
54832;DHT22;40730;53.068;6.572;2023-05-07T10:57:34;18.20;99.90
54832;DHT22;40730;53.068;6.572;2023-05-07T11:00:03;18.40;99.90
54832;DHT22;40730;53.068;6.572;2023-05-07T11:05:26;18.60;99.90
54832;DHT22;40730;53.068;6.572;2023-05-07T11:07:56;18.90;99.90
54832;DHT22;40730;53.068;6.572;2023-05-07T11:10:22;19.10;99.90
54832;DHT22;40730;53.068;6.572;2023-05-07T11:12:52;19.20;99.90
54832;DHT22;40730;53.068;6.572;2023-05-07T11:15:35;19.20;99.90
54832;DHT22;40730;53.068;6.572;2023-05-07T11:18:01;19.10;99.90
54832;DHT22;40730;53.068;6.572;2023-05-07T11:20:48;18.80;99.90
54832;DHT22;40730;53.068;6.572;2023-05-07T11:26:06;18.90;99.90
54832;DHT22;40730;53.068;6.572;2023-05-07T11:28:37;19.10;99.90
54832;DHT22;40730;53.068;6.572;2023-05-07T11:31:04;19.10;99.90
54832;DHT22;40730;53.068;6.572;2023-05-07T11:33:33;19.20;99.90
54832;DHT22;40730;53.068;6.572;2023-05-07T11:36:00;19.20;99.90
54832;DHT22;40730;53.068;6.572;2023-05-07T11:38:26;19.20;99.90
54832;DHT22;40730;53.068;6.572;2023-05-07T11:40:56;19.40;99.90
54832;DHT22;40730;53.068;6.572;2023-05-07T11:43:24;19.60;99.90
54832;DHT22;40730;53.068;6.572;2023-05-07T11:45:50;19.50;99.90
54832;DHT22;40730;53.068;6.572;2023-05-07T11:48:16;19.20;99.90
54832;DHT22;40730;53.068;6.572;2023-05-07T11:50:52;19.30;99.90
54832;DHT22;40730;53.068;6.572;2023-05-07T11:53:19;19.10;99.90
54832;DHT22;40730;53.068;6.572;2023-05-07T11:55:45;19.20;99.90
54832;DHT22;40730;53.068;6.572;2023-05-07T11:58:12;19.50;99.90
54832;DHT22;40730;53.068;6.572;2023-05-07T12:00:49;19.50;99.90
54832;DHT22;40730;53.068;6.572;2023-05-07T12:03:15;19.60;99.90
54832;DHT22;40730;53.068;6.572;2023-05-07T12:05:40;19.70;99.90
54832;DHT22;40730;53.068;6.572;2023-05-07T12:08:07;20.00;99.90
54832;DHT22;40730;53.068;6.572;2023-05-07T12:10:33;20.00;99.90
54832;DHT22;40730;53.068;6.572;2023-05-07T12:12:58;19.80;99.90
54832;DHT22;40730;53.068;6.572;2023-05-07T12:15:24;19.70;99.90
54832;DHT22;40730;53.068;6.572;2023-05-07T12:17:50;19.80;99.90
54832;DHT22;40730;53.068;6.572;2023-05-07T12:20:17;20.10;99.90
54832;DHT22;40730;53.068;6.572;2023-05-07T12:22:44;20.50;99.90
54832;DHT22;40730;53.068;6.572;2023-05-07T12:25:09;20.60;99.90
54832;DHT22;40730;53.068;6.572;2023-05-07T12:27:37;20.60;99.90
54832;DHT22;40730;53.068;6.572;2023-05-07T12:30:03;20.90;99.90
54832;DHT22;40730;53.068;6.572;2023-05-07T12:32:29;20.90;99.90
54832;DHT22;40730;53.068;6.572;2023-05-07T12:34:55;20.80;99.90
54832;DHT22;40730;53.068;6.572;2023-05-07T12:37:24;20.70;99.90
54832;DHT22;40730;53.068;6.572;2023-05-07T12:40:05;20.70;99.90
54832;DHT22;40730;53.068;6.572;2023-05-07T12:42:35;20.90;99.90
54832;DHT22;40730;53.068;6.572;2023-05-07T12:45:11;21.00;99.90
54832;DHT22;40730;53.068;6.572;2023-05-07T12:47:36;21.20;99.90
54832;DHT22;40730;53.068;6.572;2023-05-07T12:50:05;21.20;99.90
54832;DHT22;40730;53.068;6.572;2023-05-07T12:52:31;21.10;99.90
54832;DHT22;40730;53.068;6.572;2023-05-07T12:55:07;20.90;99.90
54832;DHT22;40730;53.068;6.572;2023-05-07T12:57:42;20.60;99.90
54832;DHT22;40730;53.068;6.572;2023-05-07T13:00:08;20.50;99.90
54832;DHT22;40730;53.068;6.572;2023-05-07T13:02:37;20.40;99.90
54832;DHT22;40730;53.068;6.572;2023-05-07T13:05:03;20.20;99.90
54832;DHT22;40730;53.068;6.572;2023-05-07T13:07:29;20.00;99.90
54832;DHT22;40730;53.068;6.572;2023-05-07T13:09:55;20.00;99.90
54832;DHT22;40730;53.068;6.572;2023-05-07T13:12:20;19.90;99.90
54832;DHT22;40730;53.068;6.572;2023-05-07T13:14:46;19.60;99.90
54832;DHT22;40730;53.068;6.572;2023-05-07T13:17:11;19.90;99.90
54832;DHT22;40730;53.068;6.572;2023-05-07T13:19:37;20.10;99.90
54832;DHT22;40730;53.068;6.572;2023-05-07T13:22:03;20.30;99.90
54832;DHT22;40730;53.068;6.572;2023-05-07T13:24:29;20.40;99.90
54832;DHT22;40730;53.068;6.572;2023-05-07T13:26:55;20.60;99.90
54832;DHT22;40730;53.068;6.572;2023-05-07T13:29:21;20.60;99.90
54832;DHT22;40730;53.068;6.572;2023-05-07T13:31:54;20.30;99.90
54832;DHT22;40730;53.068;6.572;2023-05-07T13:34:20;20.40;99.90
54832;DHT22;40730;53.068;6.572;2023-05-07T13:36:45;20.50;99.90
54832;DHT22;40730;53.068;6.572;2023-05-07T13:39:11;20.30;99.90
54832;DHT22;40730;53.068;6.572;2023-05-07T13:41:36;20.30;99.90
54832;DHT22;40730;53.068;6.572;2023-05-07T13:44:02;20.40;99.90
54832;DHT22;40730;53.068;6.572;2023-05-07T13:46:28;20.40;99.90
54832;DHT22;40730;53.068;6.572;2023-05-07T13:48:55;20.20;99.90
54832;DHT22;40730;53.068;6.572;2023-05-07T13:51:20;20.10;99.90
54832;DHT22;40730;53.068;6.572;2023-05-07T13:53:46;19.90;99.90
54832;DHT22;40730;53.068;6.572;2023-05-07T13:56:12;20.00;99.90
54832;DHT22;40730;53.068;6.572;2023-05-07T13:58:38;19.90;99.90
54832;DHT22;40730;53.068;6.572;2023-05-07T14:01:04;20.10;99.90
54832;DHT22;40730;53.068;6.572;2023-05-07T14:03:29;20.10;99.90
54832;DHT22;40730;53.068;6.572;2023-05-07T14:05:57;20.10;99.90
54832;DHT22;40730;53.068;6.572;2023-05-07T14:08:25;20.10;99.90
54832;DHT22;40730;53.068;6.572;2023-05-07T14:10:51;19.70;99.90
54832;DHT22;40730;53.068;6.572;2023-05-07T14:13:17;19.50;99.90
54832;DHT22;40730;53.068;6.572;2023-05-07T14:15:42;19.40;99.90
54832;DHT22;40730;53.068;6.572;2023-05-07T14:18:12;19.50;99.90
54832;DHT22;40730;53.068;6.572;2023-05-07T14:20:37;19.60;99.90
54832;DHT22;40730;53.068;6.572;2023-05-07T14:23:03;19.70;99.90
54832;DHT22;40730;53.068;6.572;2023-05-07T14:25:29;19.90;99.90
54832;DHT22;40730;53.068;6.572;2023-05-07T14:27:54;19.90;99.90
54832;DHT22;40730;53.068;6.572;2023-05-07T14:30:20;19.80;99.90
54832;DHT22;40730;53.068;6.572;2023-05-07T14:32:47;19.70;99.90
54832;DHT22;40730;53.068;6.572;2023-05-07T14:35:13;19.80;99.90
54832;DHT22;40730;53.068;6.572;2023-05-07T14:37:38;19.70;99.90
54832;DHT22;40730;53.068;6.572;2023-05-07T14:40:04;19.50;99.90
54832;DHT22;40730;53.068;6.572;2023-05-07T14:42:30;19.50;99.90
54832;DHT22;40730;53.068;6.572;2023-05-07T14:44:56;19.40;99.90
54832;DHT22;40730;53.068;6.572;2023-05-07T14:47:22;19.40;99.90
54832;DHT22;40730;53.068;6.572;2023-05-07T14:49:47;19.30;99.90
54832;DHT22;40730;53.068;6.572;2023-05-07T14:52:13;19.30;99.90
54832;DHT22;40730;53.068;6.572;2023-05-07T14:54:38;19.20;99.90
54832;DHT22;40730;53.068;6.572;2023-05-07T14:57:05;19.20;99.90
54832;DHT22;40730;53.068;6.572;2023-05-07T14:59:32;19.20;99.90
54832;DHT22;40730;53.068;6.572;2023-05-07T15:01:57;19.20;99.90
54832;DHT22;40730;53.068;6.572;2023-05-07T15:04:24;19.20;99.90
54832;DHT22;40730;53.068;6.572;2023-05-07T15:06:50;19.30;99.90
54832;DHT22;40730;53.068;6.572;2023-05-07T15:09:15;19.30;99.90
54832;DHT22;40730;53.068;6.572;2023-05-07T15:11:41;19.40;99.90
54832;DHT22;40730;53.068;6.572;2023-05-07T15:14:06;19.50;99.90
54832;DHT22;40730;53.068;6.572;2023-05-07T15:16:32;19.60;99.90
54832;DHT22;40730;53.068;6.572;2023-05-07T15:18:59;19.60;99.90
54832;DHT22;40730;53.068;6.572;2023-05-07T15:21:24;19.70;99.90
54832;DHT22;40730;53.068;6.572;2023-05-07T15:23:52;19.70;99.90
54832;DHT22;40730;53.068;6.572;2023-05-07T15:26:17;19.70;99.90
54832;DHT22;40730;53.068;6.572;2023-05-07T15:28:43;19.60;99.90
54832;DHT22;40730;53.068;6.572;2023-05-07T15:31:08;19.60;99.90
54832;DHT22;40730;53.068;6.572;2023-05-07T15:33:34;19.60;99.90
54832;DHT22;40730;53.068;6.572;2023-05-07T15:36:00;19.60;99.90
54832;DHT22;40730;53.068;6.572;2023-05-07T15:38:26;19.60;99.90
54832;DHT22;40730;53.068;6.572;2023-05-07T15:40:52;19.60;99.90